Time;durP1;ratioP1;P1;durP2;ratioP2;P2;SDS_P1;SDS_P2;PMS_P1;PMS_P2;Temp;Humidity;BMP_temperature;BMP_pressure;BME280_temperature;BME280_humidity;BME280_pressure;Samples;Min_cycle;Max_cycle;Signal;HPM_P1;HPM_P2
2021/04/28 00:00:07;;;;;;;0.20;0.20;;;;;;;5.70;41.13;97383.53;4975066;28;20042;-67
2021/04/28 00:02:33;;;;;;;0.20;0.20;;;;;;;5.70;41.07;97380.78;4973482;28;20384;-67
2021/04/28 00:04:59;;;;;;;0.50;0.40;;;;;;;5.67;41.04;97383.97;4974319;28;20479;-66
2021/04/28 00:07:26;;;;;;;0.13;0.13;;;;;;;5.65;41.09;97383.38;4974130;28;20030;-69
2021/04/28 00:09:52;;;;;;;0.20;0.20;;;;;;;5.63;40.95;97385.53;4974263;28;20045;-68
2021/04/28 00:12:17;;;;;;;0.20;0.20;;;;;;;5.64;41.04;97390.75;4972699;28;20400;-68
2021/04/28 00:14:43;;;;;;;0.30;0.30;;;;;;;5.64;41.15;97377.13;4975341;28;20038;-69
2021/04/28 00:17:09;;;;;;;0.20;0.20;;;;;;;5.66;41.00;97387.78;4977403;28;20089;-68
2021/04/28 00:19:35;;;;;;;0.40;0.40;;;;;;;5.64;41.04;97390.75;4974179;28;20396;-67
2021/04/28 00:22:01;;;;;;;0.20;0.20;;;;;;;5.61;41.12;97377.59;4973952;28;20033;-67
2021/04/28 00:24:26;;;;;;;0.35;0.35;;;;;;;5.61;41.05;97383.88;4973959;28;20038;-69
2021/04/28 00:26:52;;;;;;;0.20;0.20;;;;;;;5.59;41.13;97380.56;4973919;28;20031;-69
2021/04/28 00:29:18;;;;;;;0.20;0.20;;;;;;;5.58;41.05;97389.78;4974107;28;20058;-68
2021/04/28 00:31:44;;;;;;;0.20;0.20;;;;;;;5.59;41.01;97387.88;4973594;28;20086;-69
2021/04/28 00:34:10;;;;;;;0.20;0.20;;;;;;;5.64;41.05;97393.47;4974405;28;20536;-68
2021/04/28 00:36:36;;;;;;;0.20;0.20;;;;;;;5.70;40.95;97384.34;4974188;28;20023;-69
2021/04/28 00:39:03;;;;;;;0.20;0.20;;;;;;;5.77;40.65;97389.63;4974205;28;20464;-69
2021/04/28 00:41:29;;;;;;;0.20;0.20;;;;;;;5.82;40.64;97386.22;4974167;28;20034;-68
2021/04/28 00:43:55;;;;;;;0.20;0.20;;;;;;;5.86;40.63;97388.22;4973629;28;20382;-68
2021/04/28 00:46:21;;;;;;;0.20;0.20;;;;;;;5.92;40.47;97384.53;4973519;28;20054;-66
2021/04/28 00:48:47;;;;;;;0.20;0.20;;;;;;;5.97;40.57;97383.84;4974038;28;20062;-67
2021/04/28 00:51:13;;;;;;;0.20;0.20;;;;;;;6.05;40.33;97382.63;4973504;28;20077;-66
2021/04/28 00:53:41;;;;;;;0.15;0.15;;;;;;;6.10;40.44;97380.03;4973657;28;20043;-66
2021/04/28 00:56:08;;;;;;;0.20;0.20;;;;;;;6.09;40.52;97371.00;4973451;28;20035;-66
2021/04/28 00:58:34;;;;;;;0.30;0.30;;;;;;;6.08;40.33;97377.53;4973576;28;20476;-71
2021/04/28 01:01:00;;;;;;;0.20;0.20;;;;;;;6.08;40.40;97366.66;4988431;28;20070;-69
2021/04/28 01:03:28;;;;;;;0.10;0.10;;;;;;;6.11;40.41;97366.16;4988319;28;20524;-66
2021/04/28 01:05:57;;;;;;;0.17;0.17;;;;;;;6.13;40.53;97358.56;4973347;28;20038;-66
2021/04/28 01:08:22;;;;;;;0.20;0.20;;;;;;;6.16;40.54;97362.72;4973228;28;20026;-68
2021/04/28 01:10:50;;;;;;;0.20;0.20;;;;;;;6.22;40.49;97369.09;4973554;28;20108;-66
2021/04/28 01:13:16;;;;;;;0.20;0.20;;;;;;;6.30;40.44;97371.41;4973927;28;20113;-66
2021/04/28 01:15:42;;;;;;;0.20;0.20;;;;;;;6.39;40.15;97366.41;4973936;28;20033;-66
2021/04/28 01:18:08;;;;;;;0.20;0.20;;;;;;;6.50;39.91;97368.25;4973675;28;20031;-66
2021/04/28 01:20:36;;;;;;;0.10;0.10;;;;;;;6.59;40.00;97364.06;4973834;28;20027;-64
2021/04/28 01:23:04;;;;;;;0.17;0.17;;;;;;;6.75;39.73;97375.25;4973617;28;20113;-65
2021/04/28 01:25:30;;;;;;;0.10;0.10;;;;;;;6.97;39.45;97373.47;4988399;28;20023;-64
2021/04/28 01:28:06;;;;;;;0.30;0.30;;;;;;;6.99;39.54;97381.41;4973265;28;20060;-64
2021/04/28 01:30:52;;;;;;;0.20;0.20;;;;;;;6.93;39.62;97377.75;4972858;28;20035;-64
2021/04/28 01:33:25;;;;;;;0.20;0.20;;;;;;;6.87;39.66;97373.28;4973809;28;20027;-65
2021/04/28 01:35:54;;;;;;;0.20;0.20;;;;;;;6.85;39.90;97361.81;4973990;28;20049;-64
2021/04/28 01:38:22;;;;;;;0.10;0.10;;;;;;;6.89;39.80;97360.25;4988084;28;20031;-65
2021/04/28 01:40:48;;;;;;;0.20;0.20;;;;;;;7.06;39.68;97370.34;4976928;28;20512;-64
2021/04/28 01:43:16;;;;;;;0.20;0.20;;;;;;;8.53;37.38;97355.41;4977134;28;20085;-66
2021/04/28 01:45:42;;;;;;;0.13;0.13;;;;;;;9.27;36.42;97359.34;4977163;28;20066;-68
2021/04/28 01:48:10;;;;;;;0.20;0.20;;;;;;;9.33;36.50;97357.47;4977074;28;20027;-67
2021/04/28 01:50:37;;;;;;;0.20;0.20;;;;;;;9.14;36.97;97359.81;4976434;28;20501;-64
2021/04/28 01:53:04;;;;;;;0.20;0.20;;;;;;;9.14;37.40;97363.34;4976436;28;20027;-66
2021/04/28 01:55:30;;;;;;;0.10;0.10;;;;;;;10.82;34.92;97361.78;4976672;28;20038;-64
2021/04/28 01:57:56;;;;;;;0.20;0.20;;;;;;;12.35;33.24;97358.28;4976446;28;20067;-68
2021/04/28 02:00:23;;;;;;;0.20;0.20;;;;;;;13.45;31.95;97363.66;4972743;28;20035;-67
2021/04/28 02:02:54;;;;;;;0.10;0.10;;;;;;;13.54;32.41;97361.91;4974470;28;20038;-65
2021/04/28 02:05:23;;;;;;;0.10;0.10;;;;;;;13.05;33.66;97371.09;4972265;28;20421;-64
2021/04/28 02:07:49;;;;;;;0.10;0.10;;;;;;;12.69;34.27;97374.91;5000527;28;20105;-63
2021/04/28 02:10:17;;;;;;;0.10;0.10;;;;;;;12.68;34.57;97366.94;4971451;28;20664;-64
2021/04/28 02:12:43;;;;;;;2.42;2.30;;;;;;;13.06;34.33;97364.47;4970064;28;20731;-65
2021/04/28 02:15:11;;;;;;;0.20;0.20;;;;;;;13.72;33.68;97365.06;4972188;28;20049;-64
2021/04/28 02:17:38;;;;;;;0.10;0.10;;;;;;;14.41;32.97;97359.31;4971418;28;20038;-63
2021/04/28 02:20:08;;;;;;;0.10;0.10;;;;;;;15.52;31.53;97365.47;4974047;28;20035;-62
2021/04/28 02:22:37;;;;;;;0.20;0.20;;;;;;;16.81;30.48;97364.66;4971737;28;20070;-63
2021/04/28 02:25:05;;;;;;;0.10;0.10;;;;;;;17.42;30.08;97358.00;4988569;28;20053;-63
2021/04/28 02:27:31;;;;;;;0.10;0.10;;;;;;;16.99;30.85;97364.84;4974105;28;20601;-63
2021/04/28 02:30:01;;;;;;;0.13;0.13;;;;;;;16.32;32.19;97366.22;4972023;28;20118;-64
2021/04/28 02:32:27;;;;;;;0.22;0.22;;;;;;;15.68;33.38;97366.00;4974181;28;20127;-67
2021/04/28 02:34:53;;;;;;;0.10;0.10;;;;;;;14.94;34.64;97364.69;4974092;28;20030;-63
2021/04/28 02:37:23;;;;;;;0.10;0.10;;;;;;;14.10;35.77;97356.94;4973477;28;20023;-63
2021/04/28 02:39:59;;;;;;;0.10;0.10;;;;;;;13.25;36.88;97353.56;4973758;28;20420;-64
2021/04/28 02:42:26;;;;;;;0.10;0.10;;;;;;;12.46;38.07;97354.38;4974739;28;20455;-64
2021/04/28 02:44:53;;;;;;;0.10;0.10;;;;;;;11.88;38.52;97357.56;4975532;28;20034;-63
2021/04/28 02:47:21;;;;;;;0.20;0.20;;;;;;;11.45;38.95;97355.19;4975269;28;20073;-64
2021/04/28 02:49:47;;;;;;;0.10;0.10;;;;;;;11.15;39.30;97356.84;4974057;28;20451;-62
2021/04/28 02:52:13;;;;;;;0.20;0.20;;;;;;;10.92;39.28;97360.13;4974747;28;20088;-63
2021/04/28 02:54:40;;;;;;;0.10;0.10;;;;;;;10.69;39.45;97359.56;4974984;28;20034;-67
2021/04/28 02:57:06;;;;;;;0.10;0.10;;;;;;;10.55;39.39;97351.00;4973253;28;20186;-65
2021/04/28 02:59:32;;;;;;;0.10;0.10;;;;;;;10.51;39.26;97353.47;4975112;28;20047;-64
2021/04/28 03:01:59;;;;;;;0.10;0.10;;;;;;;10.52;38.98;97351.53;4975174;28;20382;-65
2021/04/28 03:04:25;;;;;;;0.10;0.10;;;;;;;10.56;38.63;97357.31;4975638;28;20034;-65
2021/04/28 03:06:51;;;;;;;0.10;0.10;;;;;;;10.68;38.46;97355.16;4975177;28;20117;-63
2021/04/28 03:09:17;;;;;;;0.40;0.40;;;;;;;10.71;38.25;97364.75;4975032;28;20038;-63
2021/04/28 03:11:43;;;;;;;0.20;0.20;;;;;;;10.59;38.22;97360.34;4975342;28;20031;-64
2021/04/28 03:14:09;;;;;;;0.10;0.10;;;;;;;10.50;38.57;97362.78;4989096;28;20433;-64
2021/04/28 03:16:36;;;;;;;0.20;0.20;;;;;;;10.49;38.32;97363.06;4974166;28;20114;-64
2021/04/28 03:19:06;;;;;;;0.10;0.10;;;;;;;10.73;37.90;97362.56;4974190;28;20078;-62
2021/04/28 03:21:37;;;;;;;0.10;0.10;;;;;;;11.73;36.43;97350.19;4974770;28;20050;-65
2021/04/28 03:24:03;;;;;;;0.10;0.10;;;;;;;12.65;35.31;97340.78;4974820;28;20043;-63
2021/04/28 03:26:30;;;;;;;0.10;0.10;;;;;;;13.30;34.21;97340.59;4974148;28;20066;-67
2021/04/28 03:28:56;;;;;;;0.17;0.17;;;;;;;13.75;33.91;97340.47;4974586;28;20026;-63
2021/04/28 03:31:22;;;;;;;0.10;0.10;;;;;;;13.62;34.18;97341.97;4974180;28;20096;-63
2021/04/28 03:33:48;;;;;;;0.20;0.20;;;;;;;13.38;34.65;97338.34;4973853;28;20113;-65
2021/04/28 03:36:14;;;;;;;0.10;0.10;;;;;;;13.46;34.93;97334.97;4989214;28;20624;-63
2021/04/28 03:38:40;;;;;;;0.10;0.10;;;;;;;13.66;34.68;97329.25;4974566;28;20173;-64
2021/04/28 03:41:06;;;;;;;0.10;0.10;;;;;;;13.62;35.01;97324.63;4974506;28;20058;-63
2021/04/28 03:43:32;;;;;;;0.17;0.17;;;;;;;13.92;34.45;97323.47;4974707;28;20030;-63
2021/04/28 03:45:58;;;;;;;0.10;0.10;;;;;;;14.15;34.18;97321.00;4974906;28;20039;-64
2021/04/28 03:48:23;;;;;;;0.15;0.15;;;;;;;14.46;33.97;97321.44;4974297;28;20092;-66
2021/04/28 03:50:49;;;;;;;0.10;0.10;;;;;;;13.98;34.56;97321.47;4974710;28;20046;-64
2021/04/28 03:53:15;;;;;;;0.10;0.10;;;;;;;13.48;35.42;97314.25;4974173;28;20041;-64
2021/04/28 03:55:41;;;;;;;0.10;0.10;;;;;;;13.19;36.02;97322.50;4974486;28;20129;-64
2021/04/28 03:58:07;;;;;;;0.10;0.10;;;;;;;13.79;35.28;97313.94;4974119;28;20129;-63
2021/04/28 04:00:33;;;;;;;0.20;0.20;;;;;;;15.87;32.39;97314.22;4974542;28;20173;-63
2021/04/28 04:02:58;;;;;;;0.30;0.30;;;;;;;18.01;29.99;97311.50;4972567;28;20062;-64
2021/04/28 04:05:24;;;;;;;0.30;0.30;;;;;;;19.60;28.63;97307.75;4974417;28;20515;-65
2021/04/28 04:07:50;;;;;;;0.20;0.20;;;;;;;20.62;28.10;97299.63;4974149;28;20408;-63
2021/04/28 04:10:16;;;;;;;0.10;0.10;;;;;;;21.29;28.03;97303.41;4974566;28;20030;-63
2021/04/28 04:12:42;;;;;;;0.10;0.10;;;;;;;22.03;27.55;97291.66;4974019;28;20034;-63
2021/04/28 04:15:08;;;;;;;0.10;0.10;;;;;;;22.82;27.35;97302.63;4973955;28;20033;-63
2021/04/28 04:17:35;;;;;;;0.10;0.10;;;;;;;22.96;27.45;97293.03;4974112;28;20038;-66
2021/04/28 04:20:00;;;;;;;0.10;0.10;;;;;;;22.38;28.66;97289.25;4974887;28;20469;-64
2021/04/28 04:22:26;;;;;;;0.10;0.10;;;;;;;20.69;30.74;97304.72;4973846;28;20118;-63
2021/04/28 04:24:52;;;;;;;0.10;0.10;;;;;;;19.80;32.29;97299.88;4988834;28;20567;-63
2021/04/28 04:27:18;;;;;;;0.10;0.10;;;;;;;18.55;33.78;97308.56;4972622;28;20073;-63
2021/04/28 04:29:44;;;;;;;0.10;0.10;;;;;;;17.15;35.67;97290.41;4971821;28;20062;-65
2021/04/28 04:32:10;;;;;;;0.10;0.10;;;;;;;16.66;35.97;97295.69;4974000;28;20334;-63
2021/04/28 04:34:36;;;;;;;0.10;0.10;;;;;;;17.98;33.65;97283.56;4974032;28;20031;-63
2021/04/28 04:37:03;;;;;;;0.10;0.10;;;;;;;18.42;32.86;97278.13;4974227;28;20030;-62
2021/04/28 04:39:29;;;;;;;0.10;0.10;;;;;;;20.09;30.57;97269.25;4973575;28;20125;-65
2021/04/28 04:41:55;;;;;;;0.10;0.10;;;;;;;21.26;29.48;97255.81;4973453;28;20035;-63
2021/04/28 04:44:21;;;;;;;0.50;0.30;;;;;;;21.28;29.38;97257.13;4974127;28;20033;-64
2021/04/28 04:46:47;;;;;;;0.10;0.10;;;;;;;19.74;31.38;97257.41;4972253;28;20475;-64
2021/04/28 04:49:13;;;;;;;0.10;0.10;;;;;;;18.09;33.53;97259.91;4973721;28;20051;-64
2021/04/28 04:51:39;;;;;;;0.10;0.10;;;;;;;16.75;35.39;97246.69;4973528;28;20085;-63
2021/04/28 04:54:05;;;;;;;0.10;0.10;;;;;;;15.58;36.67;97264.66;4973520;28;20034;-65
2021/04/28 04:56:31;;;;;;;0.10;0.10;;;;;;;14.43;38.27;97272.31;4973400;28;20123;-63
2021/04/28 04:58:56;;;;;;;0.10;0.10;;;;;;;13.55;38.88;97269.81;4973420;28;20146;-64
2021/04/28 05:01:22;;;;;;;0.10;0.10;;;;;;;13.25;38.96;97280.00;4973878;28;20035;-64
2021/04/28 05:03:48;;;;;;;0.10;0.10;;;;;;;13.21;38.45;97275.38;4988159;28;20081;-64
2021/04/28 05:06:14;;;;;;;0.10;0.10;;;;;;;13.05;38.28;97269.16;4973456;28;20027;-65
2021/04/28 05:08:39;;;;;;;0.10;0.10;;;;;;;12.83;38.07;97270.44;4973947;28;20118;-65
2021/04/28 05:11:05;;;;;;;0.10;0.10;;;;;;;12.79;37.84;97274.84;4973776;28;20034;-63
2021/04/28 05:13:31;;;;;;;0.10;0.10;;;;;;;12.79;37.66;97269.34;4973979;28;20042;-65
2021/04/28 05:15:57;;;;;;;0.10;0.10;;;;;;;12.85;37.12;97267.38;4976196;28;20030;-64
2021/04/28 05:18:22;;;;;;;0.10;0.10;;;;;;;12.77;37.01;97268.81;4977040;28;20026;-65
2021/04/28 05:20:48;;;;;;;1.98;0.47;;;;;;;12.61;36.72;97268.91;4977024;28;20199;-65
2021/04/28 05:23:14;;;;;;;0.15;0.15;;;;;;;12.54;36.87;97270.34;4977369;28;20567;-64
2021/04/28 05:25:40;;;;;;;0.20;0.20;;;;;;;12.40;36.92;97261.94;4977274;28;20628;-64
2021/04/28 05:28:05;;;;;;;0.10;0.10;;;;;;;12.21;36.78;97265.31;4977350;28;20401;-64
2021/04/28 05:30:31;;;;;;;0.20;0.20;;;;;;;12.16;37.07;97265.38;4975551;28;20073;-63
2021/04/28 05:32:57;;;;;;;0.10;0.10;;;;;;;12.10;36.73;97263.72;4977096;28;20031;-64
2021/04/28 05:35:23;;;;;;;0.10;0.10;;;;;;;12.05;36.86;97258.25;4976802;28;20046;-64
2021/04/28 05:37:50;;;;;;;0.52;0.52;;;;;;;11.98;37.00;97252.25;4976670;28;20093;-64
2021/04/28 05:40:16;;;;;;;0.10;0.10;;;;;;;11.77;37.14;97257.78;4975701;28;20038;-64
2021/04/28 05:42:42;;;;;;;0.10;0.10;;;;;;;11.39;37.45;97277.44;4976614;28;20046;-64
2021/04/28 05:45:11;;;;;;;0.10;0.10;;;;;;;10.98;38.19;97276.63;4976831;28;20022;-65
2021/04/28 05:47:37;;;;;;;0.20;0.20;;;;;;;10.56;38.75;97275.00;4976824;28;20027;-64
2021/04/28 05:50:05;;;;;;;0.10;0.10;;;;;;;10.13;39.40;97280.63;4976765;28;20093;-65
2021/04/28 05:52:30;;;;;;;0.20;0.20;;;;;;;9.72;39.79;97294.97;4975188;28;20440;-64
2021/04/28 05:54:56;;;;;;;0.10;0.10;;;;;;;9.45;40.25;97304.16;4976392;28;20046;-64
2021/04/28 05:57:22;;;;;;;0.10;0.10;;;;;;;9.29;40.24;97296.94;4976848;28;20408;-64
2021/04/28 05:59:48;;;;;;;0.20;0.20;;;;;;;9.37;39.91;97288.22;4976600;28;20055;-65
2021/04/28 06:02:13;;;;;;;0.20;0.20;;;;;;;9.81;39.20;97298.03;4974896;28;20500;-65
2021/04/28 06:04:39;;;;;;;0.10;0.10;;;;;;;10.44;38.24;97299.94;4976491;28;20558;-64
2021/04/28 06:07:05;;;;;;;0.20;0.20;;;;;;;10.80;37.65;97294.50;4976647;28;20038;-65
2021/04/28 06:09:31;;;;;;;0.10;0.10;;;;;;;10.92;37.36;97283.22;4976312;28;20489;-65
2021/04/28 06:11:57;;;;;;;0.20;0.20;;;;;;;10.94;37.56;97275.53;4976075;28;20555;-65
2021/04/28 06:14:23;;;;;;;0.10;0.10;;;;;;;11.07;37.44;97291.47;4974861;28;20548;-65
2021/04/28 06:16:49;;;;;;;0.10;0.10;;;;;;;11.15;37.26;97288.16;4976349;28;20023;-65
2021/04/28 06:19:15;;;;;;;0.10;0.10;;;;;;;11.37;37.22;97298.03;4976077;28;20505;-64
2021/04/28 06:21:41;;;;;;;0.10;0.10;;;;;;;11.47;36.95;97287.03;4974703;28;20090;-64
2021/04/28 06:24:08;;;;;;;0.10;0.10;;;;;;;11.36;37.33;97299.13;4974738;28;20035;-66
2021/04/28 06:26:36;;;;;;;0.17;0.17;;;;;;;11.30;37.46;97289.25;4989345;28;20117;-65
2021/04/28 06:29:02;;;;;;;0.10;0.10;;;;;;;11.24;37.64;97282.13;4978139;28;20038;-64
2021/04/28 06:31:28;;;;;;;0.10;0.10;;;;;;;11.09;38.01;97286.53;4975819;28;20409;-63
2021/04/28 06:33:53;;;;;;;0.10;0.10;;;;;;;10.92;38.44;97283.22;4990545;28;20035;-64
2021/04/28 06:36:19;;;;;;;0.20;0.20;;;;;;;10.87;38.39;97275.81;4990544;28;20038;-64
2021/04/28 06:38:45;;;;;;;0.20;0.20;;;;;;;10.84;38.58;97274.44;4975781;28;20081;-64
2021/04/28 06:41:11;;;;;;;0.20;0.20;;;;;;;10.83;38.41;97264.56;4974266;28;20046;-64
2021/04/28 06:43:37;;;;;;;0.10;0.10;;;;;;;11.04;38.17;97273.63;4976033;28;20043;-65
2021/04/28 06:46:02;;;;;;;0.10;0.10;;;;;;;11.32;37.96;97265.06;4975718;28;20121;-65
2021/04/28 06:48:28;;;;;;;0.20;0.20;;;;;;;11.46;37.65;97251.56;4975474;28;20062;-65
2021/04/28 06:50:54;;;;;;;0.20;0.20;;;;;;;11.62;37.29;97255.09;4975404;28;20125;-65
2021/04/28 06:53:22;;;;;;;0.20;0.20;;;;;;;11.82;37.25;97252.28;4975852;28;20039;-64
2021/04/28 06:55:48;;;;;;;0.10;0.10;;;;;;;12.05;36.82;97255.50;4974826;28;20031;-65
2021/04/28 06:58:14;;;;;;;0.20;0.20;;;;;;;12.47;36.27;97245.06;4975086;28;20057;-64
2021/04/28 07:00:40;;;;;;;0.10;0.10;;;;;;;12.77;36.06;97255.06;4975861;28;20401;-63
2021/04/28 07:03:06;;;;;;;0.10;0.10;;;;;;;13.04;35.64;97250.97;4975736;28;20039;-65
2021/04/28 07:05:32;;;;;;;0.20;0.20;;;;;;;13.21;35.51;97243.09;4975140;28;20412;-64
2021/04/28 07:07:57;;;;;;;0.15;0.15;;;;;;;13.20;35.78;97240.63;4973851;28;20023;-67
2021/04/28 07:10:23;;;;;;;0.13;0.13;;;;;;;13.00;36.18;97236.97;4975510;28;20544;-63
2021/04/28 07:12:50;;;;;;;0.10;0.10;;;;;;;12.85;36.41;97231.56;4975322;28;20090;-64
2021/04/28 07:15:16;;;;;;;0.17;0.17;;;;;;;12.60;36.60;97241.69;4975020;28;20039;-64
2021/04/28 07:17:46;;;;;;;0.10;0.10;;;;;;;12.30;37.23;97242.72;4973551;28;20034;-63
2021/04/28 07:20:12;;;;;;;0.10;0.10;;;;;;;11.98;37.64;97266.00;4973778;28;20042;-65
2021/04/28 07:22:38;;;;;;;0.10;0.10;;;;;;;11.61;38.23;97278.19;4974905;28;20027;-64
2021/04/28 07:25:05;;;;;;;0.20;0.20;;;;;;;11.10;39.17;97306.56;4974834;28;20031;-65
2021/04/28 07:27:30;;;;;;;0.20;0.20;;;;;;;10.13;40.86;97321.75;4974555;28;20086;-66
2021/04/28 07:29:56;;;;;;;0.10;0.10;;;;;;;8.91;42.86;97328.97;4974784;28;20031;-65
2021/04/28 07:32:23;;;;;;;0.20;0.20;;;;;;;7.82;44.48;97339.78;4974495;28;20376;-65
2021/04/28 07:34:49;;;;;;;0.20;0.20;;;;;;;6.83;46.16;97364.78;4989407;28;20030;-66
2021/04/28 07:37:15;;;;;;;0.20;0.20;;;;;;;6.04;47.19;97375.56;4973803;28;20074;-66
2021/04/28 07:39:41;;;;;;;0.20;0.20;;;;;;;5.54;47.66;97377.72;4974768;28;20046;-66
2021/04/28 07:42:07;;;;;;;0.10;0.10;;;;;;;5.28;47.50;97375.47;4974563;28;20059;-65
2021/04/28 07:44:33;;;;;;;0.20;0.20;;;;;;;5.17;47.24;97318.09;4975059;28;20037;-66
2021/04/28 07:47:00;;;;;;;0.20;0.20;;;;;;;5.19;46.94;97343.16;4959323;28;20445;-66
2021/04/28 07:49:27;;;;;;;0.20;0.20;;;;;;;5.36;46.23;97335.13;4965758;28;20804;-66
2021/04/28 07:51:53;;;;;;;0.22;0.22;;;;;;;5.84;45.06;97316.78;4965851;28;20117;-66
2021/04/28 07:54:20;;;;;;;0.68;0.68;;;;;;;6.53;43.90;97317.88;4966102;28;20042;-67
2021/04/28 07:56:47;;;;;;;0.20;0.20;;;;;;;7.02;42.96;97312.69;4968764;28;20122;-65
2021/04/28 07:59:15;;;;;;;0.20;0.20;;;;;;;7.28;42.59;97315.81;4969698;28;20049;-66
2021/04/28 08:01:41;;;;;;;0.10;0.10;;;;;;;7.29;42.64;97326.47;4972283;28;20035;-66
2021/04/28 08:04:10;;;;;;;0.20;0.20;;;;;;;7.25;43.07;97319.84;4969524;28;20029;-66
2021/04/28 08:06:56;;;;;;;;;;;;;;;;;;;;;
2021/04/28 08:09:22;;;;;;;0.20;0.20;;;;;;;7.23;43.33;97327.50;4966639;28;20054;-67
2021/04/28 08:11:48;;;;;;;0.20;0.20;;;;;;;7.26;42.86;97326.13;4972309;28;20035;-65
2021/04/28 08:14:14;;;;;;;0.20;0.20;;;;;;;7.30;43.26;97319.09;4969784;28;20030;-67
2021/04/28 08:16:40;;;;;;;0.20;0.20;;;;;;;7.31;43.42;97309.84;4970606;28;20035;-65
2021/04/28 08:19:06;;;;;;;0.20;0.20;;;;;;;7.33;43.44;97303.06;4971949;28;20089;-65
2021/04/28 08:21:32;;;;;;;0.30;0.30;;;;;;;7.40;43.55;97297.41;4968209;28;20031;-66
2021/04/28 08:23:59;;;;;;;0.20;0.20;;;;;;;7.47;43.40;97272.66;4972635;28;20034;-65
2021/04/28 08:26:24;;;;;;;0.20;0.20;;;;;;;7.55;43.49;97277.66;4971840;28;20027;-66
2021/04/28 08:28:50;;;;;;;0.10;0.10;;;;;;;7.60;43.49;97275.03;4969442;28;20097;-65
2021/04/28 08:31:20;;;;;;;0.20;0.20;;;;;;;7.68;43.46;97262.81;4971642;28;20429;-66
2021/04/28 08:33:46;;;;;;;0.20;0.20;;;;;;;7.84;43.34;97259.19;4971873;28;20481;-65
2021/04/28 08:36:12;;;;;;;0.20;0.20;;;;;;;8.06;43.00;97248.22;4971883;28;20030;-65
2021/04/28 08:38:39;;;;;;;0.20;0.20;;;;;;;8.46;42.39;97264.50;4970214;28;20034;-66
2021/04/28 08:41:07;;;;;;;0.20;0.20;;;;;;;8.80;42.14;97239.63;4970569;28;20504;-66
2021/04/28 08:43:33;;;;;;;0.20;0.20;;;;;;;8.94;41.96;97246.31;4967871;28;20019;-66
2021/04/28 08:46:01;;;;;;;0.20;0.20;;;;;;;8.97;42.08;97264.13;4968337;28;20031;-68
2021/04/28 08:48:27;;;;;;;0.15;0.15;;;;;;;8.90;42.04;97292.53;4970292;28;20054;-67
2021/04/28 08:50:53;;;;;;;0.20;0.20;;;;;;;9.08;41.74;97285.00;4974442;28;20565;-65
2021/04/28 08:53:19;;;;;;;0.10;0.10;;;;;;;9.35;41.13;97267.63;4972570;28;20030;-65
2021/04/28 08:55:45;;;;;;;0.10;0.10;;;;;;;9.44;41.02;97288.00;4974042;28;20038;-65
2021/04/28 08:58:13;;;;;;;0.20;0.20;;;;;;;9.37;41.22;97265.47;4974557;28;20047;-65
2021/04/28 09:00:39;;;;;;;0.20;0.20;;;;;;;9.26;41.43;97281.00;4970777;28;20039;-69
2021/04/28 09:03:05;;;;;;;0.20;0.20;;;;;;;9.33;41.36;97273.38;4976943;28;20037;-65
2021/04/28 09:05:34;;;;;;;0.20;0.20;;;;;;;9.40;41.22;97265.75;4971709;28;20031;-66
2021/04/28 09:08:01;;;;;;;0.10;0.10;;;;;;;9.40;41.37;97276.72;4973804;28;20206;-65
2021/04/28 09:10:29;;;;;;;0.10;0.10;;;;;;;9.42;41.18;97270.97;4974370;28;20034;-65
2021/04/28 09:13:01;;;;;;;0.10;0.10;;;;;;;9.58;41.04;97272.69;4973780;28;20519;-63
2021/04/28 09:15:38;;;;;;;0.20;0.20;;;;;;;9.78;40.76;97274.72;4974597;28;20041;-64
2021/04/28 09:18:09;;;;;;;0.10;0.10;;;;;;;9.91;40.54;97272.56;4970436;28;20038;-65
2021/04/28 09:20:39;;;;;;;0.10;0.10;;;;;;;9.97;40.50;97268.78;4969872;28;20093;-66
2021/04/28 09:23:17;;;;;;;0.15;0.15;;;;;;;9.99;40.55;97269.31;4969616;28;20038;-65
2021/04/28 09:25:48;;;;;;;0.10;0.10;;;;;;;10.09;40.38;97277.59;4973935;28;20120;-65
2021/04/28 09:28:29;;;;;;;0.10;0.10;;;;;;;10.27;40.01;97278.19;4972429;28;20142;-65
2021/04/28 09:31:08;;;;;;;0.10;0.10;;;;;;;10.34;40.09;97278.78;4975548;28;20070;-65
2021/04/28 09:33:48;;;;;;;0.15;0.15;;;;;;;10.31;40.30;97282.03;4969966;28;20035;-66
2021/04/28 09:36:16;;;;;;;0.20;0.20;;;;;;;10.38;39.73;97263.44;4966184;28;20037;-65
2021/04/28 09:39:02;;;;;;;0.10;0.10;;;;;;;10.40;39.80;97277.69;4969241;28;20035;-67
2021/04/28 09:41:37;;;;;;;0.30;0.30;;;;;;;10.39;39.70;97270.53;4972866;28;20081;-65
2021/04/28 09:44:31;;;;;;;0.10;0.10;;;;;;;10.49;39.54;97295.25;4974048;28;20042;-66
2021/04/28 09:46:58;;;;;;;0.20;0.20;;;;;;;10.57;39.31;97293.09;4973797;28;20114;-66
2021/04/28 09:49:42;;;;;;;0.10;0.10;;;;;;;10.75;38.99;97295.31;4971569;28;20082;-68
2021/04/28 09:52:08;;;;;;;0.20;0.20;;;;;;;10.93;38.76;97295.88;4982256;28;20038;-65
2021/04/28 09:54:35;;;;;;;0.20;0.20;;;;;;;10.95;38.58;97291.72;4971694;28;20097;-67
2021/04/28 09:57:01;;;;;;;0.20;0.20;;;;;;;10.94;38.60;97297.50;4972894;28;20070;-65
2021/04/28 09:59:44;;;;;;;0.20;0.20;;;;;;;10.85;38.69;97295.31;4974776;28;20051;-66
2021/04/28 10:02:32;;;;;;;0.20;0.20;;;;;;;10.72;39.05;97287.63;4974191;28;20058;-66
2021/04/28 10:05:27;;;;;;;0.20;0.20;;;;;;;10.55;39.18;97303.53;4972337;28;20526;-68
2021/04/28 10:08:07;;;;;;;0.20;0.20;;;;;;;10.43;39.31;97326.53;4974632;28;20039;-67
2021/04/28 10:10:34;;;;;;;0.10;0.10;;;;;;;10.25;39.46;97329.75;4971398;28;20042;-68
2021/04/28 10:13:00;;;;;;;0.20;0.20;;;;;;;9.89;40.02;97360.56;4970600;28;20042;-67
2021/04/28 10:15:26;;;;;;;0.10;0.10;;;;;;;9.84;40.05;97343.28;4974342;28;20045;-68
2021/04/28 10:17:54;;;;;;;0.10;0.10;;;;;;;9.94;39.79;97329.63;4975726;28;20042;-66
2021/04/28 10:20:20;;;;;;;0.13;0.13;;;;;;;10.24;39.29;97328.09;4975386;28;20058;-67
2021/04/28 10:22:49;;;;;;;0.20;0.20;;;;;;;10.59;38.74;97332.06;4975932;28;20867;-65
2021/04/28 10:25:17;;;;;;;0.13;0.13;;;;;;;10.92;38.14;97329.91;4975959;28;20026;-68
2021/04/28 10:27:45;;;;;;;0.20;0.20;;;;;;;11.00;38.15;97335.69;4975130;28;20045;-65
2021/04/28 10:30:15;;;;;;;0.10;0.10;;;;;;;10.88;38.21;97335.16;4975496;28;20038;-65
2021/04/28 10:32:42;;;;;;;0.10;0.10;;;;;;;10.87;38.28;97317.81;4975621;28;20054;-65
2021/04/28 10:35:12;;;;;;;0.20;0.20;;;;;;;10.96;37.98;97317.28;4975049;28;20053;-66
2021/04/28 10:37:41;;;;;;;0.17;0.17;;;;;;;10.91;38.07;97326.34;4974660;28;20051;-66
2021/04/28 10:40:15;;;;;;;0.20;0.20;;;;;;;10.81;38.37;97321.66;4974102;28;20031;-67
2021/04/28 10:42:42;;;;;;;0.20;0.20;;;;;;;10.71;38.48;97313.41;4974772;28;20457;-66
2021/04/28 10:45:23;;;;;;;0.10;0.10;;;;;;;10.61;38.61;97314.22;4973777;28;20539;-67
2021/04/28 10:47:51;;;;;;;0.10;0.10;;;;;;;10.57;38.49;97304.06;4975077;28;20031;-68
2021/04/28 10:50:35;;;;;;;0.10;0.10;;;;;;;10.46;38.77;97315.00;4975098;28;20527;-67
2021/04/28 10:53:05;;;;;;;0.20;0.20;;;;;;;10.42;38.85;97299.38;4975053;28;20408;-66
2021/04/28 10:55:43;;;;;;;0.20;0.20;;;;;;;10.41;38.48;97290.31;4989726;28;20071;-67
2021/04/28 10:58:38;;;;;;;0.10;0.10;;;;;;;10.51;38.33;97284.84;4974488;28;20137;-67
2021/04/28 11:01:05;;;;;;;0.10;0.10;;;;;;;10.61;38.06;97300.50;4974036;28;20066;-67
2021/04/28 11:03:35;;;;;;;0.28;0.28;;;;;;;10.70;37.84;97276.06;4975050;28;20533;-66
2021/04/28 11:06:22;;;;;;;0.10;0.10;;;;;;;10.74;37.71;97295.59;4989306;28;20031;-67
2021/04/28 11:08:54;;;;;;;0.10;0.10;;;;;;;10.90;37.48;97285.44;4989773;28;20404;-67
2021/04/28 11:11:34;;;;;;;0.20;0.20;;;;;;;11.12;37.14;97279.66;4973610;28;20042;-67
2021/04/28 11:14:23;;;;;;;0.10;0.10;;;;;;;11.00;37.18;97285.44;4974707;28;20043;-67
2021/04/28 11:17:22;;;;;;;0.10;0.10;;;;;;;10.70;37.55;97298.03;4974728;28;20055;-66
2021/04/28 11:19:52;;;;;;;0.20;0.20;;;;;;;10.54;37.63;97301.88;4989575;28;20443;-68
2021/04/28 11:22:22;;;;;;;0.20;0.20;;;;;;;10.64;37.33;97304.63;4974077;28;20030;-65
2021/04/28 11:25:12;;;;;;;0.20;0.20;;;;;;;10.88;37.04;97315.94;4974634;28;20039;-66
2021/04/28 11:27:58;;;;;;;0.10;0.10;;;;;;;10.96;36.74;97309.06;4973776;28;20031;-65
2021/04/28 11:30:45;;;;;;;0.10;0.10;;;;;;;10.75;37.06;97303.56;4974477;28;20045;-66
2021/04/28 11:33:25;;;;;;;0.10;0.10;;;;;;;10.63;37.35;97308.47;4974519;28;20031;-65
2021/04/28 11:35:54;;;;;;;0.10;0.10;;;;;;;10.55;37.36;97301.59;4974369;28;20445;-66
2021/04/28 11:38:23;;;;;;;0.20;0.20;;;;;;;10.45;37.34;97280.47;4974266;28;20089;-65
2021/04/28 11:41:06;;;;;;;0.10;0.10;;;;;;;10.32;37.42;97286.41;4974286;28;20034;-65